createdAt,value
2022-08-20T00:01:17.580Z,5.10
2022-08-20T00:04:04.823Z,6.23
2022-08-20T00:06:54.041Z,5.73
2022-08-20T00:09:41.873Z,6.27
2022-08-20T00:12:29.721Z,6.20
2022-08-20T00:15:21.896Z,9.07
2022-08-20T00:18:09.743Z,6.93
2022-08-20T00:21:01.190Z,6.33
2022-08-20T00:23:50.895Z,5.87
2022-08-20T00:26:37.955Z,7.30
2022-08-20T00:29:39.022Z,9.27
2022-08-20T00:32:26.128Z,8.13
2022-08-20T00:35:18.146Z,8.17
2022-08-20T00:38:05.371Z,8.30
2022-08-20T00:40:56.360Z,7.20
2022-08-20T00:43:47.515Z,9.77
2022-08-20T00:46:35.264Z,10.23
2022-08-20T00:49:27.873Z,10.47
2022-08-20T00:52:19.779Z,10.50
2022-08-20T00:55:07.133Z,10.53
2022-08-20T00:58:01.210Z,10.73
2022-08-20T01:00:49.928Z,11.60
2022-08-20T01:03:37.027Z,11.93
2022-08-20T01:06:25.500Z,13.60
2022-08-20T01:09:14.194Z,11.30
2022-08-20T01:12:04.242Z,11.53
2022-08-20T01:14:51.788Z,11.33
2022-08-20T01:17:45.893Z,12.63
2022-08-20T01:20:39.838Z,11.83
2022-08-20T01:23:32.699Z,12.33
2022-08-20T01:26:23.939Z,11.17
2022-08-20T01:29:16.740Z,12.03
2022-08-20T01:32:04.730Z,10.53
2022-08-20T01:34:51.868Z,10.70
2022-08-20T01:37:38.962Z,9.63
2022-08-20T01:41:04.596Z,15.33
2022-08-20T01:43:58.395Z,15.83
2022-08-20T01:46:48.670Z,14.57
2022-08-20T01:49:36.247Z,20.97
2022-08-20T01:52:29.148Z,17.63
2022-08-20T01:55:16.190Z,17.63
2022-08-20T01:58:03.397Z,17.40
2022-08-20T02:00:50.521Z,18.30
2022-08-20T02:03:42.862Z,23.27
2022-08-20T02:06:33.685Z,20.50
2022-08-20T02:09:21.360Z,20.97
2022-08-20T02:12:10.236Z,25.33
2022-08-20T02:14:57.300Z,24.53
2022-08-20T02:17:44.367Z,26.30
2022-08-20T02:20:32.260Z,25.53
2022-08-20T02:23:20.226Z,25.60
2022-08-20T02:26:07.581Z,25.67
2022-08-20T02:28:55.640Z,26.40
2022-08-20T02:32:26.265Z,24.67
2022-08-20T02:34:51.401Z,25.80
2022-08-20T02:37:39.257Z,25.97
2022-08-20T02:40:30.883Z,25.70
2022-08-20T02:43:19.406Z,26.60
2022-08-20T02:46:07.542Z,25.43
2022-08-20T02:48:55.790Z,25.30
2022-08-20T02:51:42.921Z,25.80
2022-08-20T02:54:29.963Z,23.27
2022-08-20T02:57:20.539Z,23.57
2022-08-20T03:00:18.490Z,23.83
2022-08-20T03:03:10.621Z,25.43
2022-08-20T03:05:58.965Z,23.50
2022-08-20T03:08:46.020Z,23.70
2022-08-20T03:11:33.320Z,24.17
2022-08-20T03:14:23.019Z,22.37
2022-08-20T03:17:10.032Z,21.30
2022-08-20T03:19:57.043Z,22.03
2022-08-20T03:22:44.289Z,25.13
2022-08-20T03:25:31.829Z,24.47
2022-08-20T03:28:19.669Z,25.00
2022-08-20T03:31:07.476Z,22.93
2022-08-20T03:33:54.456Z,24.50
2022-08-20T03:36:41.514Z,21.07
2022-08-20T03:39:28.525Z,23.60
2022-08-20T03:42:15.541Z,23.87
2022-08-20T03:45:02.778Z,21.57
2022-08-20T03:47:52.431Z,22.37
2022-08-20T03:50:41.861Z,21.37
2022-08-20T03:53:33.353Z,21.00
2022-08-20T03:56:20.663Z,23.50
2022-08-20T03:59:08.353Z,22.93
2022-08-20T04:01:55.663Z,22.00
2022-08-20T04:04:42.979Z,23.20
2022-08-20T04:07:29.977Z,22.07
2022-08-20T04:10:26.018Z,20.80
2022-08-20T04:13:17.608Z,21.87
2022-08-20T04:16:12.827Z,21.70
2022-08-20T04:19:03.652Z,22.53
2022-08-20T04:21:50.676Z,23.50
2022-08-20T04:24:37.640Z,22.03
2022-08-20T04:27:24.632Z,21.60
2022-08-20T04:30:14.320Z,20.30
2022-08-20T04:33:02.015Z,25.60
2022-08-20T04:35:48.974Z,23.23
2022-08-20T04:38:48.049Z,26.93
2022-08-20T04:41:37.773Z,26.13
2022-08-20T04:44:24.818Z,25.63
2022-08-20T04:47:11.793Z,27.00
2022-08-20T04:50:01.621Z,27.70
2022-08-20T04:52:49.393Z,25.33
2022-08-20T04:55:39.357Z,27.27
2022-08-20T04:58:38.118Z,29.63
2022-08-20T05:01:26.271Z,23.77
2022-08-20T05:04:13.323Z,25.20
2022-08-20T05:07:00.355Z,28.70
2022-08-20T05:09:47.439Z,30.30
2022-08-20T05:12:34.488Z,27.07
2022-08-20T05:15:24.677Z,28.87
2022-08-20T05:18:12.743Z,30.47
2022-08-20T05:21:08.146Z,33.10
2022-08-20T05:23:55.194Z,29.13
2022-08-20T05:26:42.281Z,28.33
2022-08-20T05:29:29.334Z,29.57
2022-08-20T05:32:16.547Z,28.80
2022-08-20T05:35:07.850Z,28.67
2022-08-20T05:37:55.444Z,29.40
2022-08-20T05:40:43.009Z,29.80
2022-08-20T05:43:30.379Z,27.70
2022-08-20T05:46:17.745Z,26.87
2022-08-20T05:49:04.857Z,28.30
2022-08-20T05:51:52.069Z,27.67
2022-08-20T05:54:39.974Z,28.27
2022-08-20T05:57:27.117Z,27.67
2022-08-20T06:00:14.705Z,26.03
2022-08-20T06:03:20.359Z,27.57
2022-08-20T06:06:17.898Z,29.23
2022-08-20T06:09:30.720Z,27.50
2022-08-20T06:12:19.499Z,26.87
2022-08-20T06:15:07.334Z,28.17
2022-08-20T06:17:58.491Z,28.73
2022-08-20T06:20:46.116Z,27.90
2022-08-20T06:23:56.716Z,28.10
2022-08-20T06:26:40.557Z,29.77
2022-08-20T06:29:31.447Z,26.33
2022-08-20T06:32:21.222Z,26.83
2022-08-20T06:35:20.278Z,26.47
2022-08-20T06:38:10.114Z,27.70
2022-08-20T06:40:57.181Z,27.37
2022-08-20T06:43:44.257Z,26.97
2022-08-20T06:46:32.390Z,28.93
2022-08-20T06:49:19.539Z,25.30
2022-08-20T06:52:06.866Z,27.97
2022-08-20T06:54:53.973Z,26.27
2022-08-20T06:57:42.160Z,26.47
2022-08-20T07:00:31.812Z,25.60
2022-08-20T07:03:18.972Z,23.43
2022-08-20T07:06:06.618Z,18.73
2022-08-20T07:08:55.884Z,17.13
2022-08-20T07:11:43.050Z,15.90
2022-08-20T07:14:30.150Z,13.07
2022-08-20T07:17:17.196Z,13.73
2022-08-20T07:20:23.204Z,13.50
2022-08-20T07:23:12.154Z,12.67
2022-08-20T07:25:59.710Z,12.13
2022-08-20T07:28:46.952Z,13.07
2022-08-20T07:31:52.574Z,11.83
2022-08-20T07:34:43.595Z,12.03
2022-08-20T07:37:32.285Z,11.00
2022-08-20T07:40:26.043Z,10.77
2022-08-20T07:43:15.774Z,10.03
2022-08-20T07:46:09.902Z,9.30
2022-08-20T07:48:57.393Z,9.73
2022-08-20T07:51:44.465Z,10.13
2022-08-20T07:54:32.008Z,10.37
2022-08-20T07:57:19.188Z,10.07
2022-08-20T08:00:09.028Z,10.70
2022-08-20T08:02:56.360Z,10.87
2022-08-20T08:05:54.356Z,11.50
2022-08-20T08:08:42.125Z,12.57
2022-08-20T08:11:30.131Z,13.03
2022-08-20T08:14:23.848Z,11.97
2022-08-20T08:17:11.522Z,11.50
2022-08-20T08:19:59.395Z,12.60
2022-08-20T08:22:46.477Z,12.10
2022-08-20T08:25:34.109Z,12.43
2022-08-20T08:28:21.450Z,10.33
2022-08-20T08:31:08.604Z,8.53
2022-08-20T08:33:55.851Z,9.60
2022-08-20T08:36:44.409Z,8.97
2022-08-20T08:39:34.632Z,9.87
2022-08-20T08:42:43.389Z,9.10
2022-08-20T08:45:45.559Z,8.47
2022-08-20T08:48:43.248Z,8.80
2022-08-20T08:51:41.927Z,8.73
2022-08-20T08:54:31.457Z,7.77
2022-08-20T08:57:19.179Z,8.80
2022-08-20T09:00:13.626Z,7.33
2022-08-20T09:03:01.019Z,8.83
2022-08-20T09:05:54.550Z,8.03
2022-08-20T09:09:01.175Z,8.40
2022-08-20T09:11:53.149Z,8.57
2022-08-20T09:14:40.227Z,8.07
2022-08-20T09:17:27.311Z,8.90
2022-08-20T09:20:14.488Z,8.20
2022-08-20T09:23:01.722Z,9.17
2022-08-20T09:25:48.883Z,7.97
2022-08-20T09:28:37.200Z,8.03
2022-08-20T09:31:24.537Z,8.50
2022-08-20T09:34:11.748Z,8.63
2022-08-20T09:36:58.807Z,9.23
2022-08-20T09:39:45.904Z,7.00
2022-08-20T09:42:40.731Z,7.23
2022-08-20T09:45:28.565Z,6.70
2022-08-20T09:48:15.702Z,5.73
2022-08-20T09:51:03.502Z,5.37
2022-08-20T09:53:50.942Z,4.53
2022-08-20T09:56:38.039Z,4.50
2022-08-20T09:59:26.024Z,5.07
2022-08-20T10:02:13.114Z,4.13
2022-08-20T10:05:00.183Z,4.43
2022-08-20T10:07:47.701Z,4.63
2022-08-20T10:10:35.485Z,4.97
2022-08-20T10:13:25.710Z,4.60
2022-08-20T10:16:13.356Z,4.85
2022-08-20T10:19:00.636Z,4.03
2022-08-20T10:21:49.946Z,4.60
2022-08-20T10:24:37.132Z,4.60
2022-08-20T10:27:24.178Z,5.20
2022-08-20T10:30:12.099Z,5.03
2022-08-20T10:32:59.285Z,4.70
2022-08-20T10:35:46.531Z,5.27
2022-08-20T10:38:33.590Z,5.32
2022-08-20T10:41:21.481Z,5.97
2022-08-20T10:44:08.598Z,6.43
2022-08-20T10:46:57.244Z,7.85
2022-08-20T10:49:44.625Z,7.55
2022-08-20T10:52:31.817Z,8.60
2022-08-20T10:55:19.045Z,10.88
2022-08-20T10:58:07.785Z,9.23
2022-08-20T11:00:58.613Z,9.73
2022-08-20T11:03:45.966Z,8.88
2022-08-20T11:06:33.210Z,8.57
2022-08-20T11:09:21.570Z,8.48
2022-08-20T11:12:09.329Z,8.52
2022-08-20T11:14:56.784Z,8.35
2022-08-20T11:17:45.348Z,7.80
2022-08-20T11:20:33.138Z,6.38
2022-08-20T11:23:20.267Z,5.80
2022-08-20T11:26:07.357Z,5.18
2022-08-20T11:28:54.346Z,4.78
2022-08-20T11:31:41.614Z,4.45
2022-08-20T11:34:28.873Z,3.97
2022-08-20T11:37:17.750Z,4.68
2022-08-20T11:40:05.829Z,4.35
2022-08-20T11:43:13.821Z,3.70
2022-08-20T11:46:00.689Z,4.22
2022-08-20T11:48:47.944Z,4.22
2022-08-20T11:51:50.044Z,3.55
2022-08-20T11:54:40.718Z,3.42
2022-08-20T11:57:32.388Z,3.55
2022-08-20T12:00:32.008Z,3.47
2022-08-20T12:03:20.480Z,4.05
2022-08-20T12:06:07.988Z,4.03
2022-08-20T12:08:55.057Z,3.17
2022-08-20T12:11:42.260Z,3.10
2022-08-20T12:14:29.409Z,2.95
2022-08-20T12:17:26.809Z,3.10
2022-08-20T12:20:15.161Z,3.20
2022-08-20T12:23:02.240Z,3.60
2022-08-20T12:25:49.882Z,3.28
2022-08-20T12:28:37.121Z,3.95
2022-08-20T12:31:24.203Z,3.40
2022-08-20T12:34:11.239Z,3.63
2022-08-20T12:37:12.818Z,3.47
2022-08-20T12:40:05.882Z,3.00
2022-08-20T12:42:53.105Z,2.72
2022-08-20T12:45:41.354Z,2.60
2022-08-20T12:48:28.530Z,2.38
2022-08-20T12:51:15.655Z,2.60
2022-08-20T12:54:02.809Z,2.45
2022-08-20T12:56:52.143Z,1.90
2022-08-20T12:59:39.230Z,2.05
2022-08-20T13:02:27.441Z,1.50
2022-08-20T13:05:16.004Z,1.70
2022-08-20T13:08:08.402Z,1.77
2022-08-20T13:10:55.546Z,2.20
2022-08-20T13:13:43.620Z,2.40
2022-08-20T13:16:31.203Z,2.20
2022-08-20T13:19:18.158Z,2.38
2022-08-20T13:22:05.486Z,2.15
2022-08-20T13:24:53.700Z,2.60
2022-08-20T13:27:43.007Z,2.45
2022-08-20T13:30:30.384Z,2.28
2022-08-20T13:33:17.533Z,2.75
2022-08-20T13:36:04.887Z,2.33
2022-08-20T13:38:52.203Z,1.70
2022-08-20T13:41:39.327Z,2.08
2022-08-20T13:44:31.342Z,2.17
2022-08-20T13:47:25.911Z,2.28
2022-08-20T13:50:19.946Z,2.60
2022-08-20T13:53:07.268Z,2.38
2022-08-20T13:55:54.403Z,2.47
2022-08-20T13:58:41.581Z,2.47
2022-08-20T14:01:28.900Z,2.33
2022-08-20T14:04:16.159Z,2.20
2022-08-20T14:07:14.644Z,2.20
2022-08-20T14:10:09.619Z,2.30
2022-08-20T14:12:57.025Z,2.38
2022-08-20T14:15:45.751Z,2.00
2022-08-20T14:18:33.080Z,2.00
2022-08-20T14:21:20.189Z,2.30
2022-08-20T14:24:07.458Z,2.35
2022-08-20T14:26:54.401Z,2.10
2022-08-20T14:29:43.259Z,2.00
2022-08-20T14:32:30.301Z,2.10
2022-08-20T14:35:17.947Z,1.90
2022-08-20T14:38:05.643Z,1.95
2022-08-20T14:40:52.702Z,2.10
2022-08-20T14:43:39.794Z,2.10
2022-08-20T14:46:26.830Z,2.22
2022-08-20T14:49:15.647Z,1.90
2022-08-20T14:52:02.750Z,2.03
2022-08-20T14:54:51.002Z,2.08
2022-08-20T14:57:39.826Z,2.00
2022-08-20T15:00:30.186Z,2.40
2022-08-20T15:03:17.281Z,2.20
2022-08-20T15:06:10.869Z,1.77
2022-08-20T15:09:09.323Z,2.28
2022-08-20T15:11:56.482Z,2.38
2022-08-20T15:14:43.702Z,1.98
2022-08-20T15:17:35.058Z,2.10
2022-08-20T15:20:26.070Z,2.10
2022-08-20T15:23:13.219Z,1.88
2022-08-20T15:26:00.357Z,2.20
2022-08-20T15:28:47.762Z,2.17
2022-08-20T15:31:35.147Z,2.13
2022-08-20T15:34:22.383Z,1.90
2022-08-20T15:37:16.266Z,1.88
2022-08-20T15:40:07.749Z,2.05
2022-08-20T15:42:54.790Z,2.63
2022-08-20T15:45:42.028Z,2.30
2022-08-20T15:48:38.163Z,1.92
2022-08-20T15:51:45.209Z,2.03
2022-08-20T15:54:32.355Z,1.98
2022-08-20T15:57:53.478Z,2.00
2022-08-20T16:00:56.952Z,2.03
2022-08-20T16:04:23.322Z,2.50
2022-08-20T16:07:17.290Z,1.90
2022-08-20T16:10:18.439Z,1.85
2022-08-20T16:13:41.609Z,2.15
2022-08-20T16:16:43.482Z,2.35
2022-08-20T16:19:58.801Z,1.95
2022-08-20T16:22:47.330Z,2.03
2022-08-20T16:25:52.474Z,1.77
2022-08-20T16:29:01.238Z,2.30
2022-08-20T16:32:17.497Z,2.15
2022-08-20T16:35:29.429Z,2.00
2022-08-20T16:38:23.670Z,2.33
2022-08-20T16:41:26.600Z,1.95
2022-08-20T16:44:33.176Z,1.58
2022-08-20T16:47:27.271Z,1.95
2022-08-20T16:50:21.782Z,2.15
2022-08-20T16:53:21.421Z,2.55
2022-08-20T16:56:08.973Z,1.95
2022-08-20T16:58:56.093Z,1.75
2022-08-20T17:01:43.492Z,2.20
2022-08-20T17:04:30.793Z,2.20
2022-08-20T17:07:46.301Z,1.90
2022-08-20T17:10:55.659Z,1.70
2022-08-20T17:13:46.026Z,1.95
2022-08-20T17:16:46.127Z,1.95
2022-08-20T17:19:34.315Z,1.95
2022-08-20T17:22:22.279Z,1.98
2022-08-20T17:25:35.881Z,1.70
2022-08-20T17:28:26.138Z,1.90
2022-08-20T17:31:38.564Z,2.10
2022-08-20T17:34:32.914Z,1.83
2022-08-20T17:37:22.951Z,1.90
2022-08-20T17:40:19.915Z,2.53
2022-08-20T17:43:09.850Z,2.20
2022-08-20T17:45:59.716Z,1.90
2022-08-20T17:48:49.348Z,2.10
2022-08-20T17:51:47.167Z,2.03
2022-08-20T17:54:42.322Z,1.88
2022-08-20T17:57:37.121Z,2.15
2022-08-20T18:00:28.160Z,1.88
2022-08-20T18:03:20.578Z,2.22
2022-08-20T18:06:16.806Z,2.00
2022-08-20T18:09:33.116Z,1.80
2022-08-20T18:12:33.935Z,2.08
2022-08-20T18:15:26.252Z,2.20
2022-08-20T18:18:26.065Z,1.87
2022-08-20T18:21:31.827Z,2.25
2022-08-20T18:24:41.155Z,2.13
2022-08-20T18:27:36.867Z,2.13
2022-08-20T18:30:26.102Z,2.00
2022-08-20T18:33:13.838Z,2.00
2022-08-20T18:36:22.195Z,1.90
2022-08-20T18:39:24.582Z,1.70
2022-08-20T18:42:17.534Z,1.60
2022-08-20T18:45:06.068Z,1.70
2022-08-20T18:47:53.057Z,1.70
2022-08-20T18:50:40.025Z,1.70
2022-08-20T18:53:34.250Z,2.07
2022-08-20T18:56:35.987Z,1.63
2022-08-20T18:59:23.172Z,1.77
2022-08-20T19:02:22.091Z,1.80
2022-08-20T19:05:12.410Z,1.80
2022-08-20T19:08:03.426Z,1.80
2022-08-20T19:11:25.557Z,2.30
2022-08-20T19:14:34.169Z,1.93
2022-08-20T19:17:42.613Z,1.90
2022-08-20T19:20:32.762Z,1.80
2022-08-20T19:23:21.990Z,2.63
2022-08-20T19:26:25.966Z,2.07
2022-08-20T19:29:21.837Z,2.33
2022-08-20T19:32:18.492Z,1.90
2022-08-20T19:35:08.589Z,1.80
2022-08-20T19:37:55.757Z,2.07
2022-08-20T19:40:46.184Z,1.73
2022-08-20T19:43:42.646Z,1.87
2022-08-20T19:46:35.258Z,2.23
2022-08-20T19:49:42.965Z,2.40
2022-08-20T19:52:45.661Z,2.23
2022-08-20T19:55:36.054Z,2.37
2022-08-20T19:58:26.177Z,2.20
2022-08-20T20:01:21.461Z,2.37
2022-08-20T20:04:16.827Z,2.17
2022-08-20T20:07:09.084Z,2.10
2022-08-20T20:09:58.153Z,2.50
2022-08-20T20:12:47.615Z,2.30
2022-08-20T20:15:35.020Z,2.47
2022-08-20T20:18:26.450Z,2.37
2022-08-20T20:21:22.827Z,2.00
2022-08-20T20:24:19.869Z,2.67
2022-08-20T20:27:15.028Z,2.53
2022-08-20T20:30:12.369Z,2.40
2022-08-20T20:33:01.959Z,2.80
2022-08-20T20:35:49.969Z,2.70
2022-08-20T20:38:40.017Z,2.20
2022-08-20T20:41:29.232Z,2.63
2022-08-20T20:44:19.179Z,2.67
2022-08-20T20:47:16.987Z,2.50
2022-08-20T20:50:10.651Z,2.53
2022-08-20T20:52:59.423Z,2.30
2022-08-20T20:55:56.557Z,2.20
2022-08-20T20:58:49.828Z,2.80
2022-08-20T21:01:48.220Z,2.90
2022-08-20T21:04:40.684Z,2.30
2022-08-20T21:07:29.461Z,2.50
2022-08-20T21:10:17.606Z,2.73
2022-08-20T21:13:08.114Z,2.43
2022-08-20T21:15:55.290Z,2.20
2022-08-20T21:18:42.326Z,3.00
2022-08-20T21:21:29.333Z,2.83
2022-08-20T21:24:16.402Z,2.80
2022-08-20T21:27:04.057Z,2.90
2022-08-20T21:29:52.115Z,2.90
2022-08-20T21:32:39.166Z,2.60
2022-08-20T21:35:26.282Z,3.10
2022-08-20T21:38:13.805Z,2.80
2022-08-20T21:41:01.747Z,3.37
2022-08-20T21:43:49.648Z,2.80
2022-08-20T21:46:36.699Z,2.80
2022-08-20T21:49:24.667Z,2.70
2022-08-20T21:52:11.693Z,2.77
2022-08-20T21:54:58.643Z,2.90
2022-08-20T21:57:48.043Z,3.50
2022-08-20T22:01:01.637Z,3.03
2022-08-20T22:03:49.601Z,3.30
2022-08-20T22:06:38.937Z,3.20
2022-08-20T22:09:25.949Z,3.37
2022-08-20T22:12:20.048Z,3.40
2022-08-20T22:15:07.581Z,3.13
2022-08-20T22:17:54.655Z,2.90
2022-08-20T22:20:43.085Z,3.27
2022-08-20T22:23:30.022Z,3.93
2022-08-20T22:26:18.488Z,3.53
2022-08-20T22:29:06.775Z,3.10
2022-08-20T22:31:54.131Z,3.50
2022-08-20T22:34:41.305Z,4.23
2022-08-20T22:37:31.280Z,4.13
2022-08-20T22:40:22.172Z,3.90
2022-08-20T22:43:09.403Z,4.20
2022-08-20T22:46:00.559Z,4.30
2022-08-20T22:48:47.690Z,4.07
2022-08-20T22:51:41.359Z,4.23
2022-08-20T22:54:28.593Z,4.00
2022-08-20T22:57:15.792Z,4.00
2022-08-20T23:00:12.952Z,3.73
2022-08-20T23:03:01.325Z,3.90
2022-08-20T23:05:48.822Z,4.03
2022-08-20T23:08:36.157Z,3.77
2022-08-20T23:11:23.179Z,3.50
2022-08-20T23:14:10.373Z,3.80
2022-08-20T23:17:01.543Z,4.30
2022-08-20T23:19:50.158Z,3.83
2022-08-20T23:22:37.696Z,3.70
2022-08-20T23:25:25.053Z,4.00
2022-08-20T23:28:18.475Z,3.53
2022-08-20T23:31:05.677Z,4.10
2022-08-20T23:33:52.756Z,4.27
2022-08-20T23:36:40.199Z,4.43
2022-08-20T23:39:28.651Z,4.10
2022-08-20T23:42:17.355Z,4.17
2022-08-20T23:45:05.692Z,4.30
2022-08-20T23:47:53.507Z,4.60
2022-08-20T23:50:40.689Z,5.33
2022-08-20T23:53:28.369Z,4.50
2022-08-20T23:56:15.498Z,4.60
2022-08-20T23:59:02.541Z,5.63
